Time;durP1;ratioP1;P1;durP2;ratioP2;P2;SDS_P1;SDS_P2;PMS_P1;PMS_P2;Temp;Humidity;BMP_temperature;BMP_pressure;BME280_temperature;BME280_humidity;BME280_pressure;Samples;Min_cycle;Max_cycle;Signal;HPM_P1;HPM_P2
2023/08/01 00:00:48;;;;;;;5.07;1.90;;;16.40;99.90;;;;;;5024710;28;20029;-83
2023/08/01 00:03:14;;;;;;;4.60;2.63;;;16.40;99.90;;;;;;5020960;28;20103;-84
2023/08/01 00:05:44;;;;;;;4.65;2.28;;;16.40;99.90;;;;;;5023021;28;20025;-83
2023/08/01 00:08:12;;;;;;;4.57;1.98;;;16.40;99.90;;;;;;5040447;28;20048;-82
2023/08/01 00:10:38;;;;;;;3.95;2.20;;;16.30;99.90;;;;;;5021568;28;20036;-84
2023/08/01 00:13:04;;;;;;;8.30;3.42;;;16.30;99.90;;;;;;5040903;28;20034;-85
2023/08/01 00:15:30;;;;;;;2.60;1.70;;;16.30;99.90;;;;;;5039546;28;20029;-84
2023/08/01 00:17:56;;;;;;;4.07;2.35;;;16.30;99.90;;;;;;5023736;28;20057;-84
2023/08/01 00:20:22;;;;;;;3.67;1.70;;;16.30;99.90;;;;;;5005576;28;20041;-83
2023/08/01 00:22:47;;;;;;;4.68;2.30;;;16.30;99.90;;;;;;5036011;28;20060;-86
2023/08/01 00:25:13;;;;;;;4.78;2.78;;;16.30;99.90;;;;;;5009323;28;20124;-84
2023/08/01 00:27:39;;;;;;;5.05;2.20;;;16.20;99.90;;;;;;5021110;28;20156;-84
2023/08/01 00:30:05;;;;;;;4.30;3.10;;;16.30;99.90;;;;;;5023136;28;20025;-83
2023/08/01 00:32:31;;;;;;;4.00;1.70;;;16.30;99.90;;;;;;5005387;28;20033;-84
2023/08/01 00:34:57;;;;;;;6.18;2.97;;;16.30;99.90;;;;;;5026157;28;20083;-84
2023/08/01 00:37:23;;;;;;;4.90;3.13;;;16.30;99.90;;;;;;5006979;28;20029;-84
2023/08/01 00:39:49;;;;;;;7.60;4.10;;;16.30;99.90;;;;;;5003064;28;20032;-81
2023/08/01 00:42:15;;;;;;;6.97;3.80;;;16.30;99.90;;;;;;5025174;28;20044;-85
2023/08/01 00:44:41;;;;;;;7.22;3.53;;;16.30;99.90;;;;;;5039543;28;20120;-84
2023/08/01 00:47:08;;;;;;;6.78;4.03;;;16.30;99.90;;;;;;5022719;28;20175;-83
2023/08/01 00:49:33;;;;;;;7.55;5.40;;;16.20;99.90;;;;;;5033220;28;20029;-83
2023/08/01 00:51:59;;;;;;;5.70;4.13;;;16.20;99.90;;;;;;5023188;28;20033;-81
2023/08/01 00:54:25;;;;;;;6.28;3.42;;;16.20;99.90;;;;;;5022940;28;20029;-84
2023/08/01 00:56:52;;;;;;;9.95;4.80;;;16.20;99.90;;;;;;5024190;28;20033;-84
2023/08/01 00:59:18;;;;;;;7.22;3.67;;;16.20;99.90;;;;;;5039966;28;20056;-80
2023/08/01 01:01:44;;;;;;;6.47;3.10;;;16.20;99.90;;;;;;5022750;28;20130;-84
2023/08/01 01:04:09;;;;;;;7.30;4.00;;;16.10;99.90;;;;;;5031074;28;20070;-85
2023/08/01 01:07:00;;;;;;;4.00;2.65;;;16.00;99.90;;;;;;5036391;28;20507;-84
2023/08/01 01:09:29;;;;;;;3.95;2.40;;;16.10;99.90;;;;;;5020807;28;20018;-84
2023/08/01 01:11:54;;;;;;;4.27;1.70;;;16.10;99.90;;;;;;5023089;28;20041;-83
2023/08/01 01:14:20;;;;;;;5.55;1.52;;;16.10;99.90;;;;;;5025601;28;20013;-84
2023/08/01 01:16:46;;;;;;;3.85;1.23;;;16.00;99.90;;;;;;5011408;28;20540;-84
2023/08/01 01:19:11;;;;;;;3.58;1.27;;;16.00;99.90;;;;;;5021438;28;20239;-84
2023/08/01 01:21:40;;;;;;;3.95;1.20;;;16.00;99.90;;;;;;5027140;28;20056;-82
2023/08/01 01:24:08;;;;;;;3.47;1.67;;;16.00;99.90;;;;;;5010943;28;20022;-84
2023/08/01 01:26:34;;;;;;;5.13;1.73;;;16.00;99.90;;;;;;5043086;28;20048;-85
2023/08/01 01:29:04;;;;;;;5.70;1.73;;;15.90;99.90;;;;;;5025811;28;20048;-83
2023/08/01 01:31:30;;;;;;;5.27;1.30;;;15.90;99.90;;;;;;5009950;28;20113;-82
2023/08/01 01:33:57;;;;;;;5.53;1.67;;;15.90;99.90;;;;;;5013461;28;20080;-84
2023/08/01 01:36:23;;;;;;;4.85;1.02;;;15.80;99.90;;;;;;5012518;28;20385;-85
2023/08/01 01:38:49;;;;;;;4.88;1.15;;;15.80;99.90;;;;;;5044559;28;20030;-82
2023/08/01 01:41:14;;;;;;;2.50;1.38;;;15.90;99.90;;;;;;5027060;28;20539;-85
2023/08/01 01:43:40;;;;;;;2.83;0.80;;;15.80;99.90;;;;;;5010363;28;20052;-84
2023/08/01 01:46:06;;;;;;;3.13;0.80;;;15.90;99.90;;;;;;5026496;28;20029;-85
2023/08/01 01:48:32;;;;;;;2.10;0.88;;;15.80;99.90;;;;;;5020011;28;20199;-81
2023/08/01 01:50:57;;;;;;;3.30;1.20;;;15.80;99.90;;;;;;5006865;28;20524;-84
2023/08/01 01:53:23;;;;;;;3.80;1.33;;;15.80;99.90;;;;;;5034018;28;20030;-86
2023/08/01 01:55:50;;;;;;;3.67;1.83;;;15.80;99.90;;;;;;5011627;28;20118;-84
2023/08/01 01:58:15;;;;;;;2.20;0.90;;;15.80;99.90;;;;;;5010199;28;20049;-82
2023/08/01 02:00:41;;;;;;;3.70;1.05;;;15.90;99.90;;;;;;5023627;28;20555;-87
2023/08/01 02:03:10;;;;;;;6.50;1.17;;;15.80;99.90;;;;;;5026597;28;20055;-83
2023/08/01 02:05:36;;;;;;;3.55;1.02;;;15.80;99.90;;;;;;5026099;28;20025;-84
2023/08/01 02:08:04;;;;;;;4.03;1.33;;;15.80;99.90;;;;;;5038136;28;20514;-82
2023/08/01 02:10:31;;;;;;;4.75;1.58;;;15.80;99.90;;;;;;5042148;28;20053;-83
2023/08/01 02:12:57;;;;;;;4.32;1.83;;;15.80;99.90;;;;;;5020261;28;20489;-85
2023/08/01 02:15:22;;;;;;;8.35;2.55;;;15.80;99.90;;;;;;5025705;28;20288;-83
2023/08/01 02:17:48;;;;;;;7.30;2.88;;;15.80;99.90;;;;;;5027841;28;20079;-85
2023/08/01 02:20:14;;;;;;;4.78;2.63;;;15.80;99.90;;;;;;5032274;28;20065;-84
2023/08/01 02:22:40;;;;;;;5.22;2.05;;;15.80;99.90;;;;;;5008302;28;20069;-86
2023/08/01 02:25:06;;;;;;;9.38;2.60;;;15.70;99.90;;;;;;5032599;28;20056;-84
2023/08/01 02:27:31;;;;;;;7.72;2.22;;;15.70;99.90;;;;;;5025334;28;20121;-84
2023/08/01 02:29:57;;;;;;;4.18;1.70;;;15.60;99.90;;;;;;5029915;28;20108;-83
2023/08/01 02:32:23;;;;;;;5.80;1.98;;;15.60;99.90;;;;;;5027822;28;20040;-85
2023/08/01 02:34:49;;;;;;;5.82;2.03;;;15.60;99.90;;;;;;5027746;28;20057;-84
2023/08/01 02:37:15;;;;;;;4.60;1.80;;;15.50;99.90;;;;;;5037072;28;20076;-85
2023/08/01 02:39:41;;;;;;;7.22;2.28;;;15.40;99.90;;;;;;5039345;28;20036;-86
2023/08/01 02:42:08;;;;;;;7.13;2.47;;;15.50;99.90;;;;;;5026273;28;20033;-85
2023/08/01 02:44:34;;;;;;;4.90;1.60;;;15.40;99.90;;;;;;5034213;28;20053;-84
2023/08/01 02:47:00;;;;;;;8.02;2.75;;;15.40;99.90;;;;;;5035245;28;20053;-82
2023/08/01 02:49:26;;;;;;;8.27;2.35;;;15.30;99.90;;;;;;5025157;28;20067;-85
2023/08/01 02:51:51;;;;;;;5.95;2.55;;;15.40;99.90;;;;;;5025346;28;20057;-79
2023/08/01 02:54:17;;;;;;;5.05;1.63;;;15.40;99.90;;;;;;5010898;28;20029;-85
2023/08/01 02:56:43;;;;;;;6.18;2.92;;;15.30;99.90;;;;;;5041218;28;20032;-80
2023/08/01 02:59:09;;;;;;;6.22;3.22;;;15.30;99.90;;;;;;5012100;28;20022;-81
2023/08/01 03:01:36;;;;;;;4.65;1.65;;;15.30;99.90;;;;;;5025397;28;20387;-81
2023/08/01 03:04:03;;;;;;;4.18;1.90;;;15.30;99.90;;;;;;5023928;28;20069;-83
2023/08/01 03:06:30;;;;;;;6.13;1.70;;;15.30;99.90;;;;;;5008124;28;20709;-86
2023/08/01 03:08:56;;;;;;;8.65;3.80;;;15.30;99.90;;;;;;5024357;28;20078;-83
2023/08/01 03:11:22;;;;;;;9.73;4.20;;;15.40;99.90;;;;;;5008181;28;20405;-84
2023/08/01 03:13:48;;;;;;;8.25;3.55;;;15.50;99.90;;;;;;5024321;28;20583;-84
2023/08/01 03:16:14;;;;;;;12.88;4.70;;;15.50;99.90;;;;;;5010780;28;20025;-84
2023/08/01 03:18:39;;;;;;;11.43;5.10;;;15.50;99.90;;;;;;5031301;28;20053;-84
2023/08/01 03:21:05;;;;;;;8.77;4.68;;;15.50;99.90;;;;;;5024046;28;20021;-83
2023/08/01 03:23:31;;;;;;;9.07;4.80;;;15.50;99.90;;;;;;5034239;28;20025;-86
2023/08/01 03:25:57;;;;;;;6.55;3.53;;;15.60;99.90;;;;;;5022337;28;20885;-83
2023/08/01 03:28:24;;;;;;;9.70;4.40;;;15.60;99.90;;;;;;5027332;28;20029;-84
2023/08/01 03:30:50;;;;;;;11.75;5.15;;;15.50;99.90;;;;;;5010330;28;20115;-84
2023/08/01 03:33:20;;;;;;;10.60;4.28;;;15.60;99.90;;;;;;5008176;28;20026;-83
2023/08/01 03:35:46;;;;;;;;;;;15.50;99.90;;;;;;5007616;28;20033;-86
2023/08/01 03:38:12;;;;;;;9.38;4.05;;;15.60;99.90;;;;;;5009042;28;19909;-86
2023/08/01 03:40:37;;;;;;;8.57;3.30;;;15.50;99.90;;;;;;5024316;28;20060;-84
2023/08/01 03:43:03;;;;;;;7.47;2.83;;;15.50;99.90;;;;;;5025390;28;20109;-84
2023/08/01 03:45:29;;;;;;;9.23;3.10;;;15.50;99.90;;;;;;5040501;28;20381;-84
2023/08/01 03:47:54;;;;;;;9.20;2.78;;;15.50;99.90;;;;;;5035759;28;20030;-83
2023/08/01 03:50:21;;;;;;;6.97;3.25;;;15.60;99.90;;;;;;5008349;28;20540;-84
2023/08/01 03:52:49;;;;;;;8.40;4.10;;;15.60;99.90;;;;;;5030839;28;20231;-80
2023/08/01 03:55:14;;;;;;;14.73;4.93;;;15.60;99.90;;;;;;5023648;28;20021;-83
2023/08/01 03:57:42;;;;;;;9.40;4.80;;;15.60;99.90;;;;;;5005600;28;20029;-84
2023/08/01 04:00:18;;;;;;;10.23;3.10;;;15.60;99.90;;;;;;5039237;28;20373;-80
2023/08/01 04:02:44;;;;;;;11.38;4.18;;;15.50;99.90;;;;;;5004765;28;20046;-86
2023/08/01 04:05:10;;;;;;;6.60;2.97;;;15.60;99.90;;;;;;5035816;28;20117;-84
2023/08/01 04:07:38;;;;;;;10.90;3.13;;;15.50;99.90;;;;;;5040126;28;20570;-79
2023/08/01 04:10:05;;;;;;;9.98;4.38;;;15.50;99.90;;;;;;5039508;28;20029;-81
2023/08/01 04:12:34;;;;;;;14.40;3.75;;;15.60;99.90;;;;;;5022162;28;20080;-84
2023/08/01 04:15:00;;;;;;;10.02;4.03;;;15.50;99.90;;;;;;5039400;28;20032;-83
2023/08/01 04:17:26;;;;;;;9.45;3.25;;;15.50;99.90;;;;;;5030518;28;20536;-83
2023/08/01 04:19:52;;;;;;;11.85;3.83;;;15.60;99.90;;;;;;5043138;28;20421;-83
2023/08/01 04:22:18;;;;;;;11.52;3.85;;;15.60;99.90;;;;;;5023163;28;20026;-83
2023/08/01 04:24:44;;;;;;;10.98;3.65;;;15.60;99.90;;;;;;5025154;28;20030;-84
2023/08/01 04:27:10;;;;;;;8.77;3.08;;;15.60;99.90;;;;;;5009803;28;20045;-81
2023/08/01 04:29:35;;;;;;;14.20;3.97;;;15.60;99.90;;;;;;5025175;28;20112;-83
2023/08/01 04:32:01;;;;;;;10.93;3.47;;;15.60;99.90;;;;;;5006158;28;20025;-80
2023/08/01 04:34:27;;;;;;;11.32;3.33;;;15.60;99.90;;;;;;5021901;28;20034;-85
2023/08/01 04:36:52;;;;;;;12.90;3.72;;;15.60;99.90;;;;;;5026032;28;20025;-83
2023/08/01 04:39:18;;;;;;;11.07;4.00;;;15.70;99.90;;;;;;5021500;28;20132;-84
2023/08/01 04:41:44;;;;;;;9.77;3.92;;;15.70;99.90;;;;;;5020995;28;20061;-83
2023/08/01 04:44:09;;;;;;;12.77;4.35;;;15.70;99.90;;;;;;5009700;28;20116;-83
2023/08/01 04:46:35;;;;;;;11.75;4.68;;;15.70;99.90;;;;;;5022067;28;20059;-81
2023/08/01 04:49:01;;;;;;;11.20;3.78;;;15.70;99.90;;;;;;5004496;28;20128;-79
2023/08/01 04:51:26;;;;;;;10.27;3.88;;;15.80;99.90;;;;;;5040104;28;20018;-84
2023/08/01 04:53:52;;;;;;;8.68;4.32;;;15.80;99.90;;;;;;5023114;28;20470;-83
2023/08/01 04:56:18;;;;;;;6.82;2.60;;;15.80;99.90;;;;;;5021659;28;20108;-83
2023/08/01 04:58:43;;;;;;;8.65;2.35;;;15.90;99.90;;;;;;5022287;28;20036;-83
2023/08/01 05:01:09;;;;;;;8.13;3.58;;;15.90;99.90;;;;;;5006407;28;20061;-85
2023/08/01 05:03:35;;;;;;;5.95;3.13;;;15.80;99.90;;;;;;5023014;28;20038;-82
2023/08/01 05:06:00;;;;;;;10.93;4.57;;;15.80;99.90;;;;;;5039041;28;20030;-79
2023/08/01 05:08:26;;;;;;;11.63;3.75;;;15.70;99.90;;;;;;5020240;28;20045;-84
2023/08/01 05:10:52;;;;;;;8.57;3.75;;;15.80;99.90;;;;;;5019299;28;20477;-85
2023/08/01 05:13:18;;;;;;;9.48;3.42;;;15.80;99.90;;;;;;5023010;28;20036;-82
2023/08/01 05:15:47;;;;;;;9.20;3.17;;;15.80;99.90;;;;;;5023898;28;20025;-84
2023/08/01 05:18:16;;;;;;;10.77;3.53;;;15.80;99.90;;;;;;5020691;28;20033;-81
2023/08/01 05:20:41;;;;;;;8.93;4.15;;;15.80;99.90;;;;;;5017101;28;20030;-84
2023/08/01 05:23:07;;;;;;;10.38;3.78;;;15.80;99.90;;;;;;5026301;28;20034;-83
2023/08/01 05:25:33;;;;;;;8.00;3.40;;;15.80;99.90;;;;;;5014774;28;20155;-84
2023/08/01 05:27:58;;;;;;;10.05;3.85;;;15.90;99.90;;;;;;5020240;28;20041;-84
2023/08/01 05:30:24;;;;;;;10.80;4.05;;;15.90;99.90;;;;;;5005953;28;20053;-77
2023/08/01 05:32:50;;;;;;;12.57;3.53;;;16.00;99.90;;;;;;5014044;28;20053;-78
2023/08/01 05:35:17;;;;;;;8.95;3.83;;;16.00;99.90;;;;;;5016115;28;20033;-81
2023/08/01 05:37:42;;;;;;;12.27;3.90;;;16.00;99.90;;;;;;5030905;28;21165;-79
2023/08/01 05:40:09;;;;;;;11.38;4.80;;;16.00;99.90;;;;;;5011245;28;20580;-80
2023/08/01 05:42:35;;;;;;;10.80;4.72;;;16.00;99.90;;;;;;5029543;28;20124;-81
2023/08/01 05:45:01;;;;;;;13.38;4.40;;;16.00;99.90;;;;;;5031437;28;20388;-79
2023/08/01 05:47:26;;;;;;;12.80;5.45;;;16.10;99.90;;;;;;4996533;28;20045;-79
2023/08/01 05:49:52;;;;;;;13.20;6.10;;;16.10;99.90;;;;;;5010969;28;20870;-81
2023/08/01 05:52:18;;;;;;;14.20;6.07;;;16.10;99.90;;;;;;5012026;28;20034;-78
2023/08/01 05:54:43;;;;;;;11.15;6.18;;;16.10;99.90;;;;;;5018712;28;20029;-81
2023/08/01 05:57:09;;;;;;;12.88;5.53;;;16.20;99.90;;;;;;5030736;28;20489;-80
2023/08/01 05:59:35;;;;;;;11.63;5.78;;;16.30;99.90;;;;;;5007087;28;20125;-79
2023/08/01 06:02:00;;;;;;;12.40;5.38;;;16.40;99.90;;;;;;5025168;28;20907;-79
2023/08/01 06:04:27;;;;;;;13.90;6.60;;;16.40;99.90;;;;;;5022625;28;20064;-79
2023/08/01 06:06:52;;;;;;;12.48;5.88;;;16.30;99.90;;;;;;5015526;28;20417;-80
2023/08/01 06:09:18;;;;;;;8.73;4.40;;;16.30;99.90;;;;;;5029295;28;20078;-81
2023/08/01 06:11:44;;;;;;;15.38;4.80;;;16.30;99.90;;;;;;5014444;28;20033;-79
2023/08/01 06:14:10;;;;;;;10.07;3.80;;;16.40;99.90;;;;;;5020819;28;20034;-78
2023/08/01 06:16:36;;;;;;;9.00;4.82;;;16.50;99.90;;;;;;4997613;28;20025;-78
2023/08/01 06:19:02;;;;;;;7.75;4.13;;;16.90;99.90;;;;;;5021126;28;20029;-79
2023/08/01 06:21:28;;;;;;;11.02;4.80;;;17.20;99.90;;;;;;5021686;28;20649;-81
2023/08/01 06:23:54;;;;;;;14.30;5.15;;;17.40;99.90;;;;;;5013963;28;20500;-79
2023/08/01 06:26:20;;;;;;;15.77;5.13;;;17.20;99.90;;;;;;5016435;28;20034;-79
2023/08/01 06:28:45;;;;;;;10.43;4.18;;;16.90;99.90;;;;;;5012808;28;20041;-80
2023/08/01 06:31:11;;;;;;;13.05;3.72;;;16.90;99.90;;;;;;4983215;28;21077;-80
2023/08/01 06:33:37;;;;;;;10.55;4.38;;;16.90;99.90;;;;;;5012678;28;20029;-79
2023/08/01 06:36:02;;;;;;;10.32;4.28;;;16.90;99.90;;;;;;5025864;28;20044;-82
2023/08/01 06:38:28;;;;;;;11.13;3.42;;;16.90;99.90;;;;;;5004458;28;20065;-79
2023/08/01 06:40:54;;;;;;;11.85;3.50;;;16.90;99.90;;;;;;4999167;28;20052;-82
2023/08/01 06:43:19;;;;;;;8.65;3.88;;;16.80;99.90;;;;;;5024616;28;20120;-81
2023/08/01 06:45:45;;;;;;;11.50;3.92;;;17.30;99.90;;;;;;5016603;28;20037;-80
2023/08/01 06:48:11;;;;;;;8.02;3.33;;;17.30;99.90;;;;;;5014972;28;20048;-81
2023/08/01 06:50:36;;;;;;;10.70;4.00;;;17.20;99.90;;;;;;5031796;28;20048;-82
2023/08/01 06:53:02;;;;;;;11.55;3.90;;;17.00;99.90;;;;;;5013470;28;20725;-79
2023/08/01 06:55:28;;;;;;;7.35;2.88;;;16.90;99.90;;;;;;5014735;28;20602;-80
2023/08/01 06:57:54;;;;;;;8.82;3.40;;;17.00;99.90;;;;;;4997750;28;20121;-79
2023/08/01 07:00:19;;;;;;;7.82;3.33;;;17.00;99.90;;;;;;5032557;28;20462;-79
2023/08/01 07:02:45;;;;;;;8.57;3.22;;;17.20;99.90;;;;;;5022026;28;20056;-82
2023/08/01 07:05:11;;;;;;;8.15;3.40;;;17.20;99.90;;;;;;5030675;28;20061;-81
2023/08/01 07:07:36;;;;;;;12.32;2.85;;;17.10;99.90;;;;;;5028480;28;20080;-81
2023/08/01 07:10:02;;;;;;;10.32;4.28;;;17.40;99.90;;;;;;5023270;28;20029;-81
2023/08/01 07:12:28;;;;;;;7.93;3.17;;;17.40;99.90;;;;;;5013878;28;20530;-81
2023/08/01 07:14:54;;;;;;;9.25;2.30;;;17.50;99.90;;;;;;5030572;28;20040;-79
2023/08/01 07:17:19;;;;;;;6.90;2.35;;;17.60;99.90;;;;;;4995427;28;20029;-82
2023/08/01 07:19:45;;;;;;;10.05;2.47;;;17.50;99.90;;;;;;5013801;28;20033;-78
2023/08/01 07:22:11;;;;;;;7.57;2.10;;;17.40;99.90;;;;;;5020461;28;20709;-80
2023/08/01 07:24:36;;;;;;;8.93;2.08;;;17.50;99.90;;;;;;5015032;28;20026;-81
2023/08/01 07:27:02;;;;;;;6.28;2.22;;;17.60;99.90;;;;;;5018440;28;20808;-80
2023/08/01 07:29:28;;;;;;;7.70;2.60;;;18.00;99.90;;;;;;5012235;28;20030;-77
2023/08/01 07:31:54;;;;;;;7.43;2.28;;;17.80;99.90;;;;;;5017834;28;20033;-80
2023/08/01 07:34:20;;;;;;;7.75;2.08;;;18.10;99.90;;;;;;5019787;28;20025;-81
2023/08/01 07:36:49;;;;;;;10.57;2.20;;;17.80;99.90;;;;;;5018193;28;20032;-80
2023/08/01 07:39:16;;;;;;;10.00;1.75;;;17.80;99.90;;;;;;5011707;28;20033;-81
2023/08/01 07:41:42;;;;;;;7.72;2.08;;;17.90;99.90;;;;;;5029119;28;20037;-79
2023/08/01 07:44:07;;;;;;;6.75;1.65;;;18.00;99.90;;;;;;5029385;28;20410;-79
2023/08/01 07:46:33;;;;;;;7.20;1.75;;;18.20;99.90;;;;;;5026815;28;20598;-79
2023/08/01 07:49:02;;;;;;;8.32;1.38;;;18.50;99.90;;;;;;5012428;28;20065;-80
2023/08/01 07:51:27;;;;;;;5.88;1.02;;;18.70;99.90;;;;;;5013142;28;20040;-80
2023/08/01 07:53:54;;;;;;;7.15;1.50;;;18.50;99.90;;;;;;5029300;28;20041;-79
2023/08/01 07:56:20;;;;;;;7.22;1.13;;;18.50;99.90;;;;;;5027361;28;20096;-81
2023/08/01 07:58:47;;;;;;;6.25;1.00;;;18.90;99.90;;;;;;5003330;28;20025;-81
2023/08/01 08:01:13;;;;;;;5.20;0.90;;;18.40;99.90;;;;;;5019724;28;20133;-80
2023/08/01 08:03:39;;;;;;;5.53;1.13;;;18.50;99.90;;;;;;5020158;28;20060;-82
2023/08/01 08:06:05;;;;;;;4.45;1.20;;;18.20;99.90;;;;;;5011723;28;20040;-80
2023/08/01 08:08:33;;;;;;;4.97;1.52;;;18.20;99.90;;;;;;5011295;28;20077;-81
2023/08/01 08:11:01;;;;;;;5.35;1.25;;;18.50;99.90;;;;;;5028172;28;20044;-79
2023/08/01 08:13:26;;;;;;;9.38;1.42;;;19.00;99.90;;;;;;5019611;28;20034;-80
2023/08/01 08:15:54;;;;;;;6.28;1.48;;;18.60;99.90;;;;;;5018437;28;20523;-81
2023/08/01 08:18:20;;;;;;;6.38;1.40;;;18.50;99.90;;;;;;4995222;28;20033;-81
2023/08/01 08:20:46;;;;;;;6.07;1.10;;;18.80;99.90;;;;;;5014328;28;20082;-79
2023/08/01 08:23:13;;;;;;;8.10;0.95;;;19.00;99.90;;;;;;5028925;28;20045;-81
2023/08/01 08:25:41;;;;;;;5.00;1.15;;;19.20;99.90;;;;;;5011662;28;20417;-81
2023/08/01 08:28:07;;;;;;;3.97;0.82;;;19.00;99.90;;;;;;5027643;28;20043;-81
2023/08/01 08:30:33;;;;;;;6.45;0.95;;;18.80;99.90;;;;;;4997492;28;21359;-77
2023/08/01 08:33:03;;;;;;;4.78;0.85;;;18.50;99.90;;;;;;5010627;28;20067;-82
2023/08/01 08:35:35;;;;;;;3.83;0.95;;;18.00;99.90;;;;;;5028457;28;20393;-78
2023/08/01 08:38:03;;;;;;;5.68;0.90;;;17.90;99.90;;;;;;5013584;28;20029;-78
2023/08/01 08:40:33;;;;;;;6.53;1.00;;;17.70;99.90;;;;;;5011905;28;20112;-77
2023/08/01 08:43:03;;;;;;;10.13;1.30;;;17.70;99.90;;;;;;5003294;28;20132;-82
2023/08/01 08:45:32;;;;;;;;;;;17.60;99.90;;;;;;5029905;28;20557;-80
2023/08/01 08:48:08;;;;;;;3.55;0.90;;;17.60;99.90;;;;;;5010907;28;19928;-79
2023/08/01 08:50:36;;;;;;;5.78;1.10;;;17.60;99.90;;;;;;4995153;28;20122;-78
2023/08/01 08:53:02;;;;;;;5.72;1.10;;;17.60;99.90;;;;;;5028654;28;20037;-79
2023/08/01 08:55:29;;;;;;;7.30;0.95;;;17.50;99.90;;;;;;5012749;28;20186;-81
2023/08/01 08:57:56;;;;;;;4.50;0.70;;;17.20;99.90;;;;;;5028568;28;20033;-82
2023/08/01 09:00:22;;;;;;;5.95;0.82;;;17.20;99.90;;;;;;5029570;28;20116;-82
2023/08/01 09:02:48;;;;;;;5.75;0.60;;;17.00;99.90;;;;;;5011751;28;20926;-79
2023/08/01 09:05:14;;;;;;;4.00;0.80;;;17.10;99.90;;;;;;5014027;28;20094;-77
2023/08/01 09:07:43;;;;;;;7.03;0.80;;;17.70;99.90;;;;;;5028535;28;20641;-80
2023/08/01 09:10:09;;;;;;;4.55;0.70;;;18.20;99.90;;;;;;5019519;28;20033;-80
2023/08/01 09:12:35;;;;;;;3.53;0.70;;;18.60;99.90;;;;;;5028118;28;20098;-80
2023/08/01 09:15:01;;;;;;;4.20;1.15;;;18.90;99.90;;;;;;5012957;28;20068;-81
2023/08/01 09:17:26;;;;;;;4.57;0.65;;;18.80;99.90;;;;;;5026923;28;20148;-81
2023/08/01 09:20:04;;;;;;;5.72;0.77;;;19.00;99.90;;;;;;5004247;28;20033;-82
2023/08/01 09:22:29;;;;;;;7.25;0.60;;;19.20;99.90;;;;;;5018934;28;20029;-79
2023/08/01 09:24:55;;;;;;;4.32;0.70;;;19.20;99.90;;;;;;5029521;28;20591;-82
2023/08/01 09:27:23;;;;;;;3.53;0.70;;;19.10;99.90;;;;;;5029244;28;20052;-84
2023/08/01 09:29:48;;;;;;;6.55;0.70;;;19.00;99.90;;;;;;5020032;28;20598;-81
2023/08/01 09:32:14;;;;;;;5.05;0.80;;;18.50;99.90;;;;;;5013195;28;20128;-79
2023/08/01 09:34:42;;;;;;;3.40;0.93;;;18.80;99.90;;;;;;5002582;28;20053;-78
2023/08/01 09:37:08;;;;;;;4.03;0.77;;;19.00;99.90;;;;;;5031894;28;20056;-82
2023/08/01 09:39:34;;;;;;;5.22;0.90;;;19.00;99.90;;;;;;5024935;28;20679;-83
2023/08/01 09:42:01;;;;;;;5.80;0.70;;;19.90;99.90;;;;;;5006684;28;20087;-81
2023/08/01 09:44:28;;;;;;;3.72;0.50;;;19.80;99.90;;;;;;5016809;28;20152;-78
2023/08/01 09:46:58;;;;;;;3.42;0.60;;;19.20;99.90;;;;;;5018014;28;20136;-82
2023/08/01 09:49:24;;;;;;;4.15;0.73;;;19.10;99.90;;;;;;5025892;28;20028;-83
2023/08/01 09:51:50;;;;;;;5.25;0.80;;;19.10;99.90;;;;;;5024454;28;20034;-83
2023/08/01 09:54:17;;;;;;;3.60;0.50;;;18.90;99.90;;;;;;5011725;28;20425;-83
2023/08/01 09:56:51;;;;;;;3.60;0.70;;;18.80;99.90;;;;;;4981124;28;20103;-81
2023/08/01 09:59:25;;;;;;;4.30;0.60;;;18.60;99.90;;;;;;5030820;28;20160;-79
2023/08/01 10:01:53;;;;;;;3.65;0.40;;;18.60;99.90;;;;;;5016650;28;20044;-81
2023/08/01 10:04:24;;;;;;;2.10;0.30;;;18.60;99.90;;;;;;5029300;28;20061;-82
2023/08/01 10:06:56;;;;;;;4.18;0.50;;;18.50;99.90;;;;;;5015281;28;20029;-82
2023/08/01 10:09:23;;;;;;;4.05;0.75;;;18.90;99.90;;;;;;5016083;28;20065;-82
2023/08/01 10:11:51;;;;;;;4.13;0.50;;;19.30;99.90;;;;;;4996745;28;20124;-81
2023/08/01 10:14:19;;;;;;;1.33;0.40;;;19.40;99.90;;;;;;5028134;28;20800;-82
2023/08/01 10:16:45;;;;;;;4.45;0.40;;;19.40;99.90;;;;;;5013583;28;20034;-81
2023/08/01 10:19:13;;;;;;;3.90;0.73;;;19.60;99.90;;;;;;5020273;28;20025;-81
2023/08/01 10:21:41;;;;;;;3.35;0.40;;;19.80;99.90;;;;;;5031333;28;20056;-82
2023/08/01 10:24:08;;;;;;;3.60;0.40;;;19.90;99.90;;;;;;5015061;28;20029;-80
2023/08/01 10:26:34;;;;;;;5.70;0.40;;;19.60;99.90;;;;;;5014795;28;21246;-80
2023/08/01 10:29:02;;;;;;;3.38;0.50;;;19.30;99.90;;;;;;5031621;28;20033;-77
2023/08/01 10:31:28;;;;;;;3.13;0.40;;;19.20;99.90;;;;;;5010035;28;20033;-78
2023/08/01 10:34:13;;;;;;;4.13;0.40;;;19.30;99.90;;;;;;5007835;28;20044;-80
2023/08/01 10:36:39;;;;;;;2.35;0.60;;;20.00;99.90;;;;;;5016522;28;20049;-78
2023/08/01 10:39:05;;;;;;;3.85;0.70;;;20.30;99.90;;;;;;5014119;28;20072;-82
2023/08/01 10:41:32;;;;;;;4.50;0.50;;;20.00;99.90;;;;;;4997424;28;20040;-80
2023/08/01 10:44:15;;;;;;;3.95;0.60;;;20.40;99.90;;;;;;5002082;28;20040;-81
2023/08/01 10:46:59;;;;;;;7.10;0.60;;;20.50;99.90;;;;;;5013243;28;20045;-81
2023/08/01 10:49:45;;;;;;;5.72;0.60;;;20.60;99.90;;;;;;5021655;28;20037;-85
2023/08/01 10:52:18;;;;;;;6.18;0.43;;;20.30;99.90;;;;;;5031303;28;20042;-83
2023/08/01 10:54:44;;;;;;;2.08;0.40;;;20.30;99.90;;;;;;5030273;28;20948;-82
2023/08/01 10:57:17;;;;;;;3.13;0.50;;;20.40;99.90;;;;;;4999206;28;21740;-79
2023/08/01 10:59:43;;;;;;;4.07;0.55;;;20.50;99.90;;;;;;5003594;28;20033;-84
2023/08/01 11:02:09;;;;;;;2.88;0.32;;;20.50;99.90;;;;;;5016079;28;20033;-79
2023/08/01 11:04:35;;;;;;;3.28;0.40;;;20.50;99.90;;;;;;5029665;28;20072;-82
2023/08/01 11:07:02;;;;;;;4.47;0.50;;;20.70;99.90;;;;;;4997929;28;20041;-81
2023/08/01 11:09:28;;;;;;;2.83;0.30;;;20.90;99.90;;;;;;5013607;28;20263;-82
2023/08/01 11:11:59;;;;;;;3.10;0.40;;;20.80;99.90;;;;;;5014067;28;20029;-82
2023/08/01 11:14:29;;;;;;;5.05;0.60;;;21.00;99.90;;;;;;5021618;28;20029;-78
2023/08/01 11:16:56;;;;;;;4.60;0.65;;;20.80;99.90;;;;;;5013779;28;20033;-82
2023/08/01 11:19:25;;;;;;;4.00;0.77;;;20.70;99.90;;;;;;5020413;28;20044;-81
2023/08/01 11:21:52;;;;;;;7.00;0.70;;;20.60;99.90;;;;;;5014654;28;20034;-83
2023/08/01 11:24:19;;;;;;;3.13;0.50;;;20.50;99.90;;;;;;5029407;28;20135;-82
2023/08/01 11:26:46;;;;;;;3.42;0.60;;;20.60;99.90;;;;;;5014100;28;20034;-82
2023/08/01 11:29:13;;;;;;;5.78;0.50;;;20.70;99.90;;;;;;5014674;28;20048;-80
2023/08/01 11:31:41;;;;;;;5.07;0.50;;;20.70;99.90;;;;;;5024822;28;20025;-80
2023/08/01 11:34:10;;;;;;;4.25;0.50;;;20.50;99.90;;;;;;5024064;28;20618;-80
2023/08/01 11:36:36;;;;;;;6.30;0.57;;;20.50;99.90;;;;;;5013003;28;20053;-79
2023/08/01 11:39:02;;;;;;;5.05;0.65;;;20.30;99.90;;;;;;5030811;28;20041;-81
2023/08/01 11:41:29;;;;;;;2.90;0.30;;;20.40;99.90;;;;;;5014437;28;20038;-80
2023/08/01 11:43:55;;;;;;;4.30;0.40;;;20.50;99.90;;;;;;5029613;28;20045;-80
2023/08/01 11:46:22;;;;;;;4.32;0.32;;;19.90;99.90;;;;;;5029098;28;20029;-81
2023/08/01 11:48:50;;;;;;;1.65;0.40;;;19.90;99.90;;;;;;4997539;28;20041;-79
2023/08/01 11:51:16;;;;;;;3.30;0.50;;;20.40;99.90;;;;;;5003408;28;20135;-82
2023/08/01 11:53:41;;;;;;;1.90;0.40;;;20.80;99.90;;;;;;5012092;28;20353;-79
2023/08/01 11:56:08;;;;;;;4.47;0.35;;;20.90;99.90;;;;;;5026854;28;20474;-83
2023/08/01 11:58:35;;;;;;;4.43;0.40;;;20.90;99.90;;;;;;5030311;28;20029;-80
2023/08/01 12:01:14;;;;;;;5.20;0.38;;;20.70;99.90;;;;;;5013106;28;20033;-80
2023/08/01 12:03:48;;;;;;;2.85;0.30;;;20.20;99.90;;;;;;5012399;28;20068;-77
2023/08/01 12:06:15;;;;;;;4.07;0.40;;;20.60;99.90;;;;;;5019291;28;20048;-80
2023/08/01 12:08:45;;;;;;;4.78;0.40;;;20.50;99.90;;;;;;5012440;28;20041;-81
2023/08/01 12:11:26;;;;;;;2.83;0.30;;;20.90;99.90;;;;;;5013974;28;20366;-84
2023/08/01 12:14:04;;;;;;;3.17;0.30;;;20.70;99.90;;;;;;5020425;28;20044;-81
2023/08/01 12:16:31;;;;;;;2.65;0.50;;;20.30;99.90;;;;;;5029655;28;21030;-80
2023/08/01 12:18:57;;;;;;;2.15;0.30;;;20.10;99.90;;;;;;5030757;28;20144;-82
2023/08/01 12:21:23;;;;;;;2.85;0.40;;;20.20;99.90;;;;;;4996727;28;20040;-80
2023/08/01 12:23:49;;;;;;;2.35;0.30;;;20.20;99.90;;;;;;5029417;28;20030;-81
2023/08/01 12:26:14;;;;;;;3.25;0.40;;;20.10;99.90;;;;;;5012083;28;20029;-81
2023/08/01 12:28:40;;;;;;;3.17;0.40;;;20.70;99.90;;;;;;5029104;28;20394;-81
2023/08/01 12:31:06;;;;;;;2.67;0.30;;;21.10;99.90;;;;;;4994170;28;20053;-80
2023/08/01 12:33:32;;;;;;;3.55;0.40;;;21.10;99.90;;;;;;5007330;28;20029;-83
2023/08/01 12:35:59;;;;;;;2.53;0.35;;;21.10;99.90;;;;;;5012918;28;20040;-81
2023/08/01 12:38:25;;;;;;;1.60;0.40;;;21.00;99.90;;;;;;5031115;28;20029;-80
2023/08/01 12:40:51;;;;;;;2.30;0.30;;;21.40;99.90;;;;;;5002916;28;20378;-81
2023/08/01 12:43:17;;;;;;;2.55;0.30;;;21.30;99.90;;;;;;5021057;28;20485;-80